createdAt,value
2023-06-24T00:00:29.390Z,46.20
2023-06-24T00:02:31.228Z,46.80
2023-06-24T00:04:33.143Z,46.70
2023-06-24T00:06:34.970Z,46.80
2023-06-24T00:08:36.910Z,46.70
2023-06-24T00:10:38.742Z,46.80
2023-06-24T00:12:40.656Z,46.80
2023-06-24T00:14:42.468Z,46.80
2023-06-24T00:16:44.317Z,46.80
2023-06-24T00:18:46.125Z,46.70
2023-06-24T00:20:48.013Z,46.80
2023-06-24T00:22:50.063Z,46.70
2023-06-24T00:24:51.989Z,46.70
2023-06-24T00:26:53.942Z,46.70
2023-06-24T00:28:55.856Z,46.80
2023-06-24T00:30:57.660Z,46.80
2023-06-24T00:32:59.608Z,46.80
2023-06-24T00:35:01.486Z,46.80
2023-06-24T00:37:03.387Z,46.80
2023-06-24T00:39:06.005Z,46.80
2023-06-24T00:41:08.623Z,46.90
2023-06-24T00:43:10.756Z,46.80
2023-06-24T00:45:12.632Z,46.80
2023-06-24T00:47:14.746Z,46.80
2023-06-24T00:49:16.613Z,46.80
2023-06-24T00:51:18.468Z,46.80
2023-06-24T00:53:21.052Z,46.80
2023-06-24T00:55:22.950Z,46.80
2023-06-24T00:57:24.800Z,46.80
2023-06-24T00:59:26.807Z,46.80
2023-06-24T01:01:33.380Z,46.80
2023-06-24T01:03:35.915Z,46.80
2023-06-24T01:05:37.837Z,46.80
2023-06-24T01:07:39.933Z,46.80
2023-06-24T01:09:42.248Z,46.80
2023-06-24T01:11:44.107Z,46.80
2023-06-24T01:15:48.225Z,46.30
2023-06-24T01:17:56.059Z,46.70
2023-06-24T01:20:05.251Z,46.70
2023-06-24T01:22:07.231Z,46.70
2023-06-24T01:24:17.849Z,46.80
2023-06-24T01:26:22.746Z,46.80
2023-06-24T01:28:24.552Z,46.80
2023-06-24T01:30:41.367Z,46.90
2023-06-24T01:32:49.019Z,46.90
2023-06-24T01:34:56.436Z,46.90
2023-06-24T01:37:04.300Z,46.90
2023-06-24T01:39:08.458Z,46.90
2023-06-24T01:41:10.975Z,46.90
2023-06-24T01:43:14.480Z,46.90
2023-06-24T01:45:20.163Z,46.90
2023-06-24T01:47:24.026Z,46.90
2023-06-24T01:49:29.250Z,46.90
2023-06-24T01:51:32.780Z,47.00
2023-06-24T01:53:35.922Z,47.00
2023-06-24T01:55:39.174Z,47.00
2023-06-24T01:57:41.874Z,47.00
2023-06-24T01:59:44.748Z,47.00
2023-06-24T02:01:47.006Z,47.10
2023-06-24T02:03:49.754Z,47.10
2023-06-24T02:05:52.827Z,47.10
2023-06-24T02:07:55.110Z,47.10
2023-06-24T02:09:57.439Z,47.10
2023-06-24T02:12:00.115Z,47.10
2023-06-24T02:14:02.747Z,47.20
2023-06-24T02:16:05.963Z,47.20
2023-06-24T02:18:09.498Z,47.20
2023-06-24T02:20:11.677Z,47.20
2023-06-24T02:22:13.821Z,47.30
2023-06-24T02:24:15.954Z,47.30
2023-06-24T02:26:18.647Z,47.30
2023-06-24T02:28:21.105Z,47.30
2023-06-24T02:30:23.441Z,47.40
2023-06-24T02:32:25.405Z,47.30
2023-06-24T02:34:28.540Z,47.30
2023-06-24T02:36:30.432Z,47.30
2023-06-24T02:38:32.224Z,47.40
2023-06-24T02:40:34.258Z,47.30
2023-06-24T02:42:36.148Z,47.30
2023-06-24T02:44:38.884Z,47.30
2023-06-24T02:46:41.224Z,47.30
2023-06-24T02:48:43.927Z,47.40
2023-06-24T02:50:45.772Z,47.40
2023-06-24T02:54:53.472Z,47.00
2023-06-24T02:57:14.010Z,47.50
2023-06-24T02:59:45.255Z,47.50
2023-06-24T03:01:48.525Z,47.50
2023-06-24T03:03:50.822Z,47.50
2023-06-24T03:05:54.247Z,47.50
2023-06-24T03:07:57.701Z,47.50
2023-06-24T03:09:59.970Z,47.50
2023-06-24T03:12:02.048Z,47.60
2023-06-24T03:14:14.070Z,47.60
2023-06-24T03:16:18.448Z,47.60
2023-06-24T03:18:27.342Z,47.60
2023-06-24T03:20:29.223Z,47.60
2023-06-24T03:22:32.313Z,47.60
2023-06-24T03:24:34.421Z,47.60
2023-06-24T03:26:37.106Z,47.60
2023-06-24T03:28:40.243Z,47.60
2023-06-24T03:30:50.090Z,47.60
2023-06-24T03:32:55.022Z,47.70
2023-06-24T03:34:57.116Z,47.80
2023-06-24T03:36:58.938Z,47.70
2023-06-24T03:39:00.918Z,47.70
2023-06-24T03:41:02.781Z,47.80
2023-06-24T03:43:04.809Z,47.80
2023-06-24T03:45:06.961Z,47.80
2023-06-24T03:47:08.888Z,47.80
2023-06-24T03:49:10.704Z,47.80
2023-06-24T03:51:12.839Z,47.80
2023-06-24T03:53:15.215Z,47.80
2023-06-24T03:55:17.669Z,47.90
2023-06-24T03:57:19.527Z,47.90
2023-06-24T03:59:21.489Z,47.90
2023-06-24T04:01:23.408Z,48.00
2023-06-24T04:03:25.470Z,47.90
2023-06-24T04:05:27.439Z,48.00
2023-06-24T04:09:35.958Z,47.40
2023-06-24T04:11:37.869Z,48.00
2023-06-24T04:13:39.697Z,48.00
2023-06-24T04:15:41.603Z,48.00
2023-06-24T04:17:43.661Z,48.00
2023-06-24T04:19:45.744Z,48.00
2023-06-24T04:21:47.632Z,48.00
2023-06-24T04:23:49.488Z,48.10
2023-06-24T04:25:52.153Z,48.00
2023-06-24T04:27:56.787Z,48.00
2023-06-24T04:29:58.651Z,48.10
2023-06-24T04:32:00.584Z,48.00
2023-06-24T04:34:02.442Z,48.10
2023-06-24T04:36:05.750Z,48.10
2023-06-24T04:38:08.159Z,48.00
2023-06-24T04:40:10.399Z,48.10
2023-06-24T04:42:12.561Z,48.10
2023-06-24T04:44:14.899Z,48.10
2023-06-24T04:46:16.765Z,49.00
2023-06-24T04:48:18.645Z,48.20
2023-06-24T04:50:20.505Z,48.30
2023-06-24T04:52:24.098Z,48.30
2023-06-24T04:54:25.884Z,49.20
2023-06-24T04:56:28.419Z,48.60
2023-06-24T04:58:30.254Z,49.00
2023-06-24T05:00:32.172Z,48.40
2023-06-24T05:02:34.060Z,49.40
2023-06-24T05:04:36.062Z,48.50
2023-06-24T05:06:37.938Z,48.30
2023-06-24T05:08:39.833Z,48.30
2023-06-24T05:10:41.660Z,48.40
2023-06-24T05:12:43.578Z,48.40
2023-06-24T05:14:45.424Z,49.10
2023-06-24T05:16:47.337Z,49.40
2023-06-24T05:18:49.193Z,48.50
2023-06-24T05:20:51.079Z,49.40
2023-06-24T05:22:53.155Z,50.00
2023-06-24T05:24:55.053Z,48.50
2023-06-24T05:26:56.854Z,48.50
2023-06-24T05:28:58.795Z,48.40
2023-06-24T05:31:00.580Z,48.50
2023-06-24T05:33:02.598Z,48.50
2023-06-24T05:35:04.660Z,48.50
2023-06-24T05:37:06.571Z,48.50
2023-06-24T05:39:08.442Z,48.50
2023-06-24T05:41:10.346Z,48.60
2023-06-24T05:43:12.176Z,48.60
2023-06-24T05:45:14.050Z,48.60
2023-06-24T05:47:15.887Z,48.50
2023-06-24T05:49:17.713Z,48.50
2023-06-24T05:51:20.059Z,48.60
2023-06-24T05:53:22.720Z,48.70
2023-06-24T05:55:24.631Z,48.60
2023-06-24T05:57:26.553Z,48.70
2023-06-24T05:59:28.390Z,49.20
2023-06-24T06:01:30.314Z,49.80
2023-06-24T06:03:32.424Z,49.30
2023-06-24T06:05:34.770Z,51.00
2023-06-24T06:07:37.037Z,50.80
2023-06-24T06:09:38.891Z,49.30
2023-06-24T06:11:40.750Z,49.70
2023-06-24T06:13:42.637Z,50.40
2023-06-24T06:15:44.716Z,48.80
2023-06-24T06:17:46.942Z,48.70
2023-06-24T06:19:50.849Z,48.70
2023-06-24T06:21:54.360Z,48.70
2023-06-24T06:23:56.245Z,48.70
2023-06-24T06:25:58.225Z,48.70
2023-06-24T06:28:00.033Z,48.70
2023-06-24T06:30:01.917Z,48.70
2023-06-24T06:32:03.873Z,48.70
2023-06-24T06:34:05.831Z,48.70
2023-06-24T06:36:07.728Z,48.70
2023-06-24T06:38:09.625Z,48.70
2023-06-24T06:40:11.617Z,48.80
2023-06-24T06:42:13.561Z,48.90
2023-06-24T06:44:15.364Z,48.80
2023-06-24T06:46:17.306Z,48.80
2023-06-24T06:48:19.463Z,48.80
2023-06-24T06:50:21.357Z,48.90
2023-06-24T06:52:23.163Z,48.90
2023-06-24T06:54:26.351Z,48.90
2023-06-24T06:56:28.182Z,48.90
2023-06-24T06:58:30.027Z,48.80
2023-06-24T07:00:31.886Z,48.90
2023-06-24T07:02:33.874Z,49.00
2023-06-24T07:04:35.656Z,48.90
2023-06-24T07:06:37.548Z,49.00
2023-06-24T07:08:39.347Z,49.10
2023-06-24T07:10:41.189Z,49.00
2023-06-24T07:12:43.002Z,49.00
2023-06-24T07:14:44.872Z,49.00
2023-06-24T07:16:46.658Z,49.00
2023-06-24T07:18:48.552Z,49.00
2023-06-24T07:20:50.355Z,49.00
2023-06-24T07:22:52.220Z,49.00
2023-06-24T07:24:54.046Z,49.00
2023-06-24T07:26:55.888Z,49.00
2023-06-24T07:29:08.043Z,49.00
2023-06-24T07:31:10.937Z,49.00
2023-06-24T07:33:12.786Z,49.10
2023-06-24T07:35:14.752Z,49.00
2023-06-24T07:37:24.593Z,49.10
2023-06-24T07:39:27.142Z,49.20
2023-06-24T07:41:28.981Z,49.60
2023-06-24T07:43:30.866Z,50.10
2023-06-24T07:45:32.981Z,50.60
2023-06-24T07:49:37.213Z,50.00
2023-06-24T07:51:39.054Z,50.60
2023-06-24T07:53:40.860Z,50.90
2023-06-24T07:55:42.846Z,51.20
2023-06-24T07:57:47.814Z,55.10
2023-06-24T07:59:49.734Z,51.30
2023-06-24T08:01:51.586Z,51.50
2023-06-24T08:03:53.586Z,52.20
2023-06-24T08:05:55.491Z,52.00
2023-06-24T08:07:57.414Z,52.10
2023-06-24T08:09:59.227Z,51.70
2023-06-24T08:12:01.125Z,52.20
2023-06-24T08:14:02.997Z,52.20
2023-06-24T08:16:04.985Z,52.10
2023-06-24T08:18:06.869Z,52.30
2023-06-24T08:20:09.060Z,52.60
2023-06-24T08:22:10.874Z,52.50
2023-06-24T08:24:12.786Z,54.00
2023-06-24T08:26:17.585Z,53.20
2023-06-24T08:28:19.994Z,53.40
2023-06-24T08:30:21.790Z,52.50
2023-06-24T08:32:23.780Z,52.30
2023-06-24T08:34:27.096Z,52.40
2023-06-24T08:36:29.553Z,52.90
2023-06-24T08:38:40.591Z,52.30
2023-06-24T08:40:42.939Z,52.40
2023-06-24T08:42:44.958Z,52.60
2023-06-24T08:44:46.886Z,52.80
2023-06-24T08:46:49.411Z,52.80
2023-06-24T08:48:54.378Z,53.50
2023-06-24T08:50:57.532Z,52.80
2023-06-24T08:53:01.701Z,52.30
2023-06-24T08:55:03.721Z,52.10
2023-06-24T08:57:05.913Z,53.20
2023-06-24T08:59:07.827Z,52.80
2023-06-24T09:01:09.987Z,52.90
2023-06-24T09:03:12.078Z,53.30
2023-06-24T09:05:14.188Z,51.60
2023-06-24T09:07:24.409Z,52.40
2023-06-24T09:09:26.600Z,52.70
2023-06-24T09:11:29.662Z,52.00
2023-06-24T09:15:36.866Z,51.50
2023-06-24T09:17:45.311Z,52.30
2023-06-24T09:19:48.952Z,52.10
2023-06-24T09:21:51.309Z,52.30
2023-06-24T09:23:56.807Z,52.50
2023-06-24T09:25:58.748Z,52.50
2023-06-24T09:28:01.347Z,52.80
2023-06-24T09:30:17.247Z,52.70
2023-06-24T09:32:19.105Z,52.70
2023-06-24T09:34:21.004Z,52.50
2023-06-24T09:36:22.807Z,52.60
2023-06-24T09:38:35.188Z,52.80
2023-06-24T09:40:37.179Z,53.00
2023-06-24T09:42:48.101Z,53.40
2023-06-24T09:44:54.012Z,53.70
2023-06-24T09:46:56.352Z,53.90
2023-06-24T09:48:58.149Z,54.20
2023-06-24T09:51:01.149Z,54.10
2023-06-24T09:53:04.047Z,54.00
2023-06-24T09:55:06.396Z,54.40
2023-06-24T09:57:08.770Z,53.90
2023-06-24T09:59:12.826Z,54.40
2023-06-24T10:01:14.648Z,53.50
2023-06-24T10:03:16.726Z,53.60
2023-06-24T10:05:18.742Z,53.50
2023-06-24T10:07:20.635Z,53.40
2023-06-24T10:09:22.816Z,53.20
2023-06-24T10:11:24.697Z,53.10
2023-06-24T10:13:26.585Z,53.20
2023-06-24T10:15:28.857Z,52.80
2023-06-24T10:17:31.096Z,52.40
2023-06-24T10:19:38.556Z,51.50
2023-06-24T10:21:53.526Z,51.70
2023-06-24T10:23:55.456Z,51.30
2023-06-24T10:25:57.280Z,51.00
2023-06-24T10:27:59.150Z,50.60
2023-06-24T10:30:03.447Z,50.50
2023-06-24T10:32:08.721Z,49.70
2023-06-24T10:34:48.859Z,49.90
2023-06-24T10:37:01.022Z,50.10
2023-06-24T10:39:02.918Z,50.10
2023-06-24T10:41:16.113Z,50.00
2023-06-24T10:43:23.955Z,49.60
2023-06-24T10:45:25.882Z,49.30
2023-06-24T10:47:28.143Z,49.30
2023-06-24T10:49:30.183Z,49.40
2023-06-24T10:51:32.031Z,49.20
2023-06-24T10:53:33.986Z,48.80
2023-06-24T10:55:36.998Z,48.80
2023-06-24T10:57:38.946Z,49.80
2023-06-24T10:59:40.743Z,50.00
2023-06-24T11:02:02.893Z,49.20
2023-06-24T11:04:06.684Z,49.00
2023-06-24T11:06:11.401Z,48.30
2023-06-24T11:08:13.334Z,47.60
2023-06-24T11:10:15.888Z,48.30
2023-06-24T11:12:18.031Z,48.80
2023-06-24T11:14:23.179Z,48.40
2023-06-24T11:16:25.026Z,47.80
2023-06-24T11:18:27.031Z,48.20
2023-06-24T11:20:28.903Z,47.90
2023-06-24T11:22:30.781Z,48.80
2023-06-24T11:24:32.632Z,48.10
2023-06-24T11:26:34.569Z,48.40
2023-06-24T11:28:38.397Z,48.60
2023-06-24T11:30:40.596Z,48.30
2023-06-24T11:32:43.752Z,47.30
2023-06-24T11:34:45.709Z,46.20
2023-06-24T11:36:48.838Z,46.30
2023-06-24T11:38:50.731Z,46.40
2023-06-24T11:40:52.544Z,46.90
2023-06-24T11:45:06.647Z,46.40
2023-06-24T11:47:09.277Z,46.20
2023-06-24T11:49:11.096Z,46.00
2023-06-24T11:51:14.671Z,45.80
2023-06-24T11:53:16.565Z,46.70
2023-06-24T11:55:18.439Z,46.80
2023-06-24T11:57:20.286Z,46.90
2023-06-24T12:01:30.949Z,46.40
2023-06-24T12:03:33.641Z,47.10
2023-06-24T12:05:36.816Z,47.00
2023-06-24T12:07:38.707Z,46.90
2023-06-24T12:09:40.521Z,47.00
2023-06-24T12:11:42.422Z,47.10
2023-06-24T12:13:44.268Z,47.10
2023-06-24T12:15:46.144Z,47.10
2023-06-24T12:17:48.027Z,47.10
2023-06-24T12:19:49.946Z,47.10
2023-06-24T12:21:51.758Z,47.10
2023-06-24T12:23:53.691Z,47.10
2023-06-24T12:25:55.488Z,47.20
2023-06-24T12:27:57.377Z,47.20
2023-06-24T12:29:59.262Z,47.20
2023-06-24T12:32:01.239Z,47.20
2023-06-24T12:34:03.119Z,47.20
2023-06-24T12:36:05.221Z,47.20
2023-06-24T12:38:07.034Z,47.20
2023-06-24T12:40:09.322Z,47.20
2023-06-24T12:42:11.255Z,47.20
2023-06-24T12:46:15.510Z,46.60
2023-06-24T12:48:17.404Z,47.30
2023-06-24T12:50:19.275Z,47.40
2023-06-24T12:52:21.187Z,47.40
2023-06-24T12:54:23.013Z,47.30
2023-06-24T12:56:24.905Z,47.30
2023-06-24T12:58:26.696Z,47.30
2023-06-24T13:00:28.664Z,47.30
2023-06-24T13:02:30.531Z,47.40
2023-06-24T13:04:32.435Z,47.30
2023-06-24T13:06:34.294Z,47.40
2023-06-24T13:08:36.270Z,47.40
2023-06-24T13:10:38.269Z,47.40
2023-06-24T13:12:40.136Z,47.30
2023-06-24T13:14:41.976Z,47.40
2023-06-24T13:16:43.837Z,47.40
2023-06-24T13:18:45.689Z,47.50
2023-06-24T13:20:47.590Z,47.50
2023-06-24T13:22:49.467Z,47.40
2023-06-24T13:24:51.455Z,47.50
2023-06-24T13:26:53.249Z,47.40
2023-06-24T13:28:55.140Z,47.50
2023-06-24T13:30:57.032Z,47.40
2023-06-24T13:32:58.976Z,47.50
2023-06-24T13:35:00.832Z,47.50
2023-06-24T13:37:02.687Z,47.50
2023-06-24T13:39:05.014Z,47.50
2023-06-24T13:41:06.898Z,47.50
2023-06-24T13:43:08.683Z,47.50
2023-06-24T13:45:10.855Z,47.50
2023-06-24T13:47:12.708Z,47.50
2023-06-24T13:49:14.688Z,47.50
2023-06-24T13:51:16.966Z,47.50
2023-06-24T13:53:18.806Z,47.50
2023-06-24T13:55:20.614Z,47.50
2023-06-24T13:57:22.539Z,47.50
2023-06-24T13:59:24.394Z,47.60
2023-06-24T14:01:26.609Z,47.60
2023-06-24T14:03:28.627Z,47.60
2023-06-24T14:05:30.495Z,47.50
2023-06-24T14:07:32.309Z,47.60
2023-06-24T14:09:34.604Z,47.60
2023-06-24T14:11:36.471Z,47.60
2023-06-24T14:13:38.329Z,47.60
2023-06-24T14:15:40.194Z,47.00
2023-06-24T14:17:42.135Z,47.60
2023-06-24T14:19:44.180Z,47.50
2023-06-24T14:21:46.111Z,47.60
2023-06-24T14:23:48.235Z,47.50
2023-06-24T14:25:50.170Z,47.60
2023-06-24T14:27:52.052Z,47.60
2023-06-24T14:29:53.939Z,47.60
2023-06-24T14:31:55.822Z,47.60
2023-06-24T14:33:57.735Z,47.60
2023-06-24T14:35:59.535Z,47.60
2023-06-24T14:38:01.393Z,47.60
2023-06-24T14:40:03.263Z,47.60
2023-06-24T14:42:05.188Z,47.60
2023-06-24T14:44:07.021Z,47.60
2023-06-24T14:46:08.944Z,47.60
2023-06-24T14:48:10.763Z,47.60
2023-06-24T14:50:12.647Z,47.60
2023-06-24T14:52:14.494Z,47.70
2023-06-24T14:54:16.332Z,47.60
2023-06-24T14:56:18.141Z,47.60
2023-06-24T14:58:20.180Z,47.60
2023-06-24T15:00:22.153Z,47.60
2023-06-24T15:02:24.048Z,47.60
2023-06-24T15:04:25.902Z,47.50
2023-06-24T15:06:27.774Z,47.60
2023-06-24T15:08:29.626Z,47.60
2023-06-24T15:10:31.620Z,47.60
2023-06-24T15:12:33.429Z,47.60
2023-06-24T15:14:35.293Z,47.60
2023-06-24T15:16:37.119Z,47.60
2023-06-24T15:18:45.906Z,47.60
2023-06-24T15:22:50.019Z,47.10
2023-06-24T15:24:51.826Z,47.60
2023-06-24T15:26:53.680Z,47.60
2023-06-24T15:28:55.549Z,47.60
2023-06-24T15:30:57.451Z,47.70
2023-06-24T15:32:59.352Z,47.70
2023-06-24T15:35:04.696Z,47.70
2023-06-24T15:37:06.832Z,47.70
2023-06-24T15:39:08.734Z,47.70
2023-06-24T15:41:10.593Z,47.70
2023-06-24T15:43:12.522Z,47.70
2023-06-24T15:45:14.366Z,47.70
2023-06-24T15:47:16.255Z,47.70
2023-06-24T15:49:18.087Z,47.70
2023-06-24T15:51:20.008Z,47.70
2023-06-24T15:53:21.978Z,47.70
2023-06-24T15:55:24.008Z,47.70
2023-06-24T15:57:25.834Z,48.40
2023-06-24T15:59:27.731Z,47.70
2023-06-24T16:01:29.598Z,47.70
2023-06-24T16:03:31.619Z,47.70
2023-06-24T16:05:33.530Z,47.70
2023-06-24T16:07:36.019Z,47.80
2023-06-24T16:09:37.833Z,47.80
2023-06-24T16:11:39.727Z,47.70
2023-06-24T16:13:41.556Z,47.70
2023-06-24T16:15:43.437Z,47.70
2023-06-24T16:17:45.321Z,47.70
2023-06-24T16:19:47.257Z,47.70
2023-06-24T16:21:49.073Z,47.70
2023-06-24T16:23:50.933Z,47.70
2023-06-24T16:25:52.715Z,47.70
2023-06-24T16:27:54.630Z,47.70
2023-06-24T16:29:56.492Z,47.70
2023-06-24T16:31:58.332Z,47.70
2023-06-24T16:34:00.124Z,47.70
2023-06-24T16:36:02.032Z,47.70
2023-06-24T16:38:03.834Z,47.80
2023-06-24T16:40:05.988Z,47.70
2023-06-24T16:42:07.920Z,47.80
2023-06-24T16:44:09.797Z,48.40
2023-06-24T16:46:11.665Z,47.80
2023-06-24T16:48:13.564Z,47.70
2023-06-24T16:50:15.475Z,47.70
2023-06-24T16:52:17.360Z,47.70
2023-06-24T16:54:19.151Z,47.70
2023-06-24T16:56:21.013Z,47.70
2023-06-24T16:58:22.821Z,47.90
2023-06-24T17:00:24.679Z,47.70
2023-06-24T17:02:26.637Z,47.80
2023-06-24T17:04:28.587Z,47.70
2023-06-24T17:06:30.410Z,47.70
2023-06-24T17:08:32.286Z,47.70
2023-06-24T17:10:34.585Z,47.70
2023-06-24T17:12:36.880Z,47.70
2023-06-24T17:14:38.706Z,47.70
2023-06-24T17:16:40.639Z,47.70
2023-06-24T17:18:42.430Z,47.70
2023-06-24T17:20:44.354Z,47.70
2023-06-24T17:22:46.184Z,47.70
2023-06-24T17:24:48.063Z,47.70
2023-06-24T17:26:49.913Z,47.70
2023-06-24T17:28:51.801Z,47.70
2023-06-24T17:30:53.622Z,47.90
2023-06-24T17:32:55.585Z,47.70
2023-06-24T17:34:57.417Z,47.70
2023-06-24T17:36:59.247Z,47.70
2023-06-24T17:39:01.063Z,47.70
2023-06-24T17:41:02.949Z,47.70
2023-06-24T17:43:04.762Z,47.60
2023-06-24T17:45:06.888Z,47.70
2023-06-24T17:47:08.723Z,47.70
2023-06-24T17:49:10.593Z,47.60
2023-06-24T17:51:12.469Z,48.20
2023-06-24T17:53:14.377Z,47.60
2023-06-24T17:55:17.042Z,47.60
2023-06-24T17:57:18.926Z,47.60
2023-06-24T17:59:20.737Z,47.60
2023-06-24T18:01:22.651Z,47.60
2023-06-24T18:03:24.565Z,47.50
2023-06-24T18:05:26.472Z,47.50
2023-06-24T18:07:28.512Z,47.60
2023-06-24T18:09:30.494Z,47.50
2023-06-24T18:11:32.296Z,47.50
2023-06-24T18:13:34.149Z,47.50
2023-06-24T18:15:36.009Z,47.50
2023-06-24T18:17:37.962Z,47.50
2023-06-24T18:19:39.770Z,47.60
2023-06-24T18:21:41.745Z,47.50
2023-06-24T18:23:43.627Z,47.50
2023-06-24T18:25:45.463Z,47.50
2023-06-24T18:27:47.346Z,47.70
2023-06-24T18:29:49.226Z,47.50
2023-06-24T18:31:51.075Z,47.50
2023-06-24T18:33:54.169Z,47.50
2023-06-24T18:35:57.682Z,47.50
2023-06-24T18:37:59.588Z,47.50
2023-06-24T18:40:01.787Z,47.50
2023-06-24T18:42:03.920Z,47.50
2023-06-24T18:44:05.732Z,47.50
2023-06-24T18:46:07.674Z,47.50
2023-06-24T18:48:09.501Z,47.90
2023-06-24T18:50:11.378Z,47.30
2023-06-24T18:52:13.211Z,47.20
2023-06-24T18:54:15.088Z,47.10
2023-06-24T18:56:16.911Z,47.20
2023-06-24T18:58:18.808Z,47.20
2023-06-24T19:00:20.662Z,47.10
2023-06-24T19:02:22.579Z,46.90
2023-06-24T19:04:24.447Z,47.00
2023-06-24T19:06:26.298Z,47.00
2023-06-24T19:08:28.099Z,47.00
2023-06-24T19:10:30.028Z,46.90
2023-06-24T19:12:31.866Z,46.90
2023-06-24T19:14:33.754Z,46.70
2023-06-24T19:16:35.574Z,46.60
2023-06-24T19:18:37.470Z,46.50
2023-06-24T19:20:39.279Z,46.60
2023-06-24T19:22:41.112Z,46.60
2023-06-24T19:24:42.937Z,46.60
2023-06-24T19:26:44.808Z,46.50
2023-06-24T19:28:46.604Z,46.60
2023-06-24T19:30:48.620Z,46.50
2023-06-24T19:32:50.551Z,46.60
2023-06-24T19:34:52.432Z,46.60
2023-06-24T19:36:54.293Z,46.60
2023-06-24T19:38:56.212Z,46.60
2023-06-24T19:40:58.024Z,46.60
2023-06-24T19:42:59.905Z,46.60
2023-06-24T19:45:01.737Z,46.60
2023-06-24T19:47:03.734Z,46.60
2023-06-24T19:49:05.566Z,46.60
2023-06-24T19:51:07.849Z,46.60
2023-06-24T19:53:09.717Z,46.70
2023-06-24T19:55:11.646Z,46.60
2023-06-24T19:57:13.467Z,46.70
2023-06-24T19:59:15.289Z,46.60
2023-06-24T20:01:17.167Z,46.60
2023-06-24T20:03:19.045Z,46.70
2023-06-24T20:05:21.238Z,46.70
2023-06-24T20:07:23.215Z,46.60
2023-06-24T20:09:25.054Z,46.70
2023-06-24T20:11:26.947Z,46.70
2023-06-24T20:13:28.820Z,46.80
2023-06-24T20:15:30.825Z,46.70
2023-06-24T20:17:32.702Z,46.80
2023-06-24T20:19:34.855Z,46.70
2023-06-24T20:21:36.734Z,46.70
2023-06-24T20:23:38.624Z,46.80
2023-06-24T20:25:40.459Z,46.80
2023-06-24T20:27:42.318Z,46.80
2023-06-24T20:29:44.100Z,46.80
2023-06-24T20:31:46.066Z,47.40
2023-06-24T20:33:47.879Z,46.80
2023-06-24T20:35:49.716Z,46.80
2023-06-24T20:37:51.555Z,46.80
2023-06-24T20:39:53.421Z,46.80
2023-06-24T20:41:55.762Z,46.80
2023-06-24T20:43:58.054Z,46.80
2023-06-24T20:45:59.894Z,46.80
2023-06-24T20:48:01.817Z,46.80
2023-06-24T20:50:04.836Z,46.90
2023-06-24T20:52:06.903Z,46.80
2023-06-24T20:54:08.700Z,46.90
2023-06-24T20:56:11.320Z,46.90
2023-06-24T20:58:13.353Z,46.80
2023-06-24T21:00:15.368Z,46.90
2023-06-24T21:02:17.230Z,46.90
2023-06-24T21:04:19.076Z,46.80
2023-06-24T21:06:20.931Z,46.90
2023-06-24T21:08:22.830Z,46.80
2023-06-24T21:10:24.633Z,46.80
2023-06-24T21:12:26.551Z,47.00
2023-06-24T21:14:28.391Z,46.80
2023-06-24T21:16:30.233Z,46.90
2023-06-24T21:18:32.079Z,46.90
2023-06-24T21:20:34.131Z,46.90
2023-06-24T21:22:36.018Z,46.90
2023-06-24T21:24:37.856Z,46.90
2023-06-24T21:26:39.689Z,47.00
2023-06-24T21:28:41.610Z,47.00
2023-06-24T21:30:43.534Z,46.90
2023-06-24T21:32:45.459Z,47.00
2023-06-24T21:34:47.256Z,47.00
2023-06-24T21:36:49.098Z,46.90
2023-06-24T21:38:50.943Z,47.00
2023-06-24T21:40:52.809Z,46.90
2023-06-24T21:42:54.999Z,47.00
2023-06-24T21:44:56.992Z,47.00
2023-06-24T21:46:59.077Z,47.00
2023-06-24T21:49:00.921Z,47.10
2023-06-24T21:51:02.765Z,47.00
2023-06-24T21:53:04.607Z,47.00
2023-06-24T21:55:06.811Z,47.10
2023-06-24T21:57:08.676Z,47.00
2023-06-24T21:59:10.488Z,47.10
2023-06-24T22:01:12.350Z,46.90
2023-06-24T22:03:14.268Z,47.00
2023-06-24T22:05:29.133Z,47.00
2023-06-24T22:07:35.443Z,47.00
2023-06-24T22:09:37.324Z,47.00
2023-06-24T22:11:39.102Z,47.00
2023-06-24T22:13:41.005Z,47.10
2023-06-24T22:15:42.821Z,47.00
2023-06-24T22:17:44.707Z,46.90
2023-06-24T22:19:46.578Z,47.00
2023-06-24T22:21:48.490Z,47.10
2023-06-24T22:23:50.422Z,47.00
2023-06-24T22:25:52.353Z,47.10
2023-06-24T22:27:54.186Z,47.00
2023-06-24T22:29:56.043Z,47.00
2023-06-24T22:31:57.864Z,47.00
2023-06-24T22:33:59.768Z,47.00
2023-06-24T22:36:01.601Z,47.00
2023-06-24T22:38:03.508Z,47.00
2023-06-24T22:40:06.203Z,47.00
2023-06-24T22:42:08.145Z,47.00
2023-06-24T22:44:10.018Z,47.00
2023-06-24T22:46:12.104Z,47.10
2023-06-24T22:48:13.960Z,47.20
2023-06-24T22:50:15.842Z,47.00
2023-06-24T22:52:17.676Z,47.10
2023-06-24T22:54:19.661Z,47.00
2023-06-24T22:56:21.483Z,47.10
2023-06-24T22:58:23.339Z,47.10
2023-06-24T23:00:25.181Z,47.00
2023-06-24T23:02:27.416Z,47.00
2023-06-24T23:04:29.405Z,47.10
2023-06-24T23:06:31.425Z,47.00
2023-06-24T23:08:33.473Z,47.00
2023-06-24T23:10:35.744Z,46.90
2023-06-24T23:12:37.889Z,47.00
2023-06-24T23:14:40.953Z,46.90
2023-06-24T23:16:42.833Z,47.00
2023-06-24T23:18:44.810Z,47.00
2023-06-24T23:20:46.773Z,47.00
2023-06-24T23:22:48.785Z,47.00
2023-06-24T23:24:50.652Z,47.00
2023-06-24T23:26:54.430Z,47.00
2023-06-24T23:28:58.862Z,47.00
2023-06-24T23:31:03.940Z,47.00
2023-06-24T23:33:06.643Z,47.00
2023-06-24T23:35:09.055Z,47.00
2023-06-24T23:37:11.105Z,46.90
2023-06-24T23:39:13.228Z,46.90
2023-06-24T23:41:15.356Z,47.00
2023-06-24T23:43:17.365Z,47.00
2023-06-24T23:45:19.395Z,47.10
2023-06-24T23:47:21.286Z,46.90
2023-06-24T23:49:23.204Z,47.00
2023-06-24T23:51:25.112Z,46.90
2023-06-24T23:53:27.000Z,46.90
2023-06-24T23:55:28.826Z,46.90
2023-06-24T23:57:30.652Z,47.00
2023-06-24T23:59:32.768Z,47.00
